createdAt,value
2022-08-27T00:01:25.255Z,17.08
2022-08-27T00:03:55.067Z,17.08
2022-08-27T00:06:24.378Z,17.09
2022-08-27T00:08:52.981Z,17.10
2022-08-27T00:11:22.386Z,17.09
2022-08-27T00:13:50.342Z,17.13
2022-08-27T00:16:18.825Z,17.12
2022-08-27T00:18:48.357Z,17.15
2022-08-27T00:21:17.169Z,17.09
2022-08-27T00:23:45.398Z,17.13
2022-08-27T00:26:13.156Z,17.16
2022-08-27T00:28:41.661Z,17.17
2022-08-27T00:31:12.116Z,17.21
2022-08-27T00:33:40.466Z,17.19
2022-08-27T00:36:08.728Z,17.17
2022-08-27T00:38:38.444Z,17.26
2022-08-27T00:41:08.697Z,17.26
2022-08-27T00:43:50.400Z,17.25
2022-08-27T00:46:37.848Z,17.26
2022-08-27T00:49:23.978Z,17.27
2022-08-27T00:51:59.074Z,17.27
2022-08-27T00:54:28.118Z,17.28
2022-08-27T00:56:56.349Z,17.29
2022-08-27T00:59:29.162Z,17.27
2022-08-27T01:02:14.209Z,17.28
2022-08-27T01:04:44.275Z,17.27
2022-08-27T01:07:12.227Z,17.25
2022-08-27T01:09:40.774Z,17.23
2022-08-27T01:12:09.129Z,17.23
2022-08-27T01:14:37.262Z,17.23
2022-08-27T01:17:07.475Z,17.24
2022-08-27T01:19:46.772Z,17.22
2022-08-27T01:22:37.097Z,17.21
2022-08-27T01:25:09.019Z,17.16
2022-08-27T01:27:37.794Z,17.07
2022-08-27T01:30:07.610Z,17.02
2022-08-27T01:32:36.642Z,16.91
2022-08-27T01:35:09.575Z,16.84
2022-08-27T01:37:37.908Z,16.77
2022-08-27T01:40:08.430Z,16.70
2022-08-27T01:42:39.861Z,16.65
2022-08-27T01:45:12.693Z,16.61
2022-08-27T01:47:40.571Z,16.58
2022-08-27T01:50:16.457Z,16.53
2022-08-27T01:52:44.805Z,16.49
2022-08-27T01:55:15.879Z,16.43
2022-08-27T01:57:44.574Z,16.39
2022-08-27T02:00:16.893Z,16.32
2022-08-27T02:02:44.947Z,16.27
2022-08-27T02:05:13.445Z,16.21
2022-08-27T02:07:41.906Z,16.19
2022-08-27T02:10:12.057Z,16.12
2022-08-27T02:12:39.631Z,16.09
2022-08-27T02:15:07.926Z,16.00
2022-08-27T02:17:35.489Z,16.00
2022-08-27T02:20:03.211Z,15.97
2022-08-27T02:22:30.675Z,15.95
2022-08-27T02:24:58.329Z,15.79
2022-08-27T02:27:26.015Z,15.84
2022-08-27T02:29:54.494Z,15.84
2022-08-27T02:32:26.960Z,15.81
2022-08-27T02:35:00.490Z,15.78
2022-08-27T02:37:29.127Z,15.75
2022-08-27T02:39:57.084Z,15.69
2022-08-27T02:42:24.626Z,15.64
2022-08-27T02:44:52.151Z,15.60
2022-08-27T02:47:19.652Z,15.56
2022-08-27T02:49:47.255Z,15.53
2022-08-27T02:52:14.742Z,15.48
2022-08-27T02:54:43.335Z,15.47
2022-08-27T02:57:10.957Z,15.40
2022-08-27T02:59:38.422Z,15.39
2022-08-27T03:02:06.058Z,15.34
2022-08-27T03:04:33.839Z,15.31
2022-08-27T03:07:01.368Z,15.30
2022-08-27T03:09:28.995Z,15.29
2022-08-27T03:11:56.766Z,15.27
2022-08-27T03:14:24.258Z,15.24
2022-08-27T03:16:51.817Z,15.25
2022-08-27T03:19:23.801Z,15.22
2022-08-27T03:21:54.290Z,15.21
2022-08-27T03:24:22.462Z,15.18
2022-08-27T03:26:52.755Z,15.16
2022-08-27T03:29:21.541Z,15.14
2022-08-27T03:31:49.025Z,15.10
2022-08-27T03:34:19.840Z,15.07
2022-08-27T03:36:48.737Z,15.04
2022-08-27T03:39:16.227Z,15.01
2022-08-27T03:41:54.684Z,14.98
2022-08-27T03:44:26.311Z,14.95
2022-08-27T03:46:53.985Z,14.95
2022-08-27T03:49:22.982Z,14.92
2022-08-27T03:51:52.685Z,14.90
2022-08-27T03:54:20.291Z,14.86
2022-08-27T03:56:47.867Z,14.84
2022-08-27T03:59:16.124Z,14.83
2022-08-27T04:01:45.498Z,14.77
2022-08-27T04:04:14.011Z,14.74
2022-08-27T04:06:42.026Z,14.70
2022-08-27T04:09:09.538Z,14.68
2022-08-27T04:11:37.402Z,14.65
2022-08-27T04:14:22.634Z,14.65
2022-08-27T04:16:55.872Z,14.59
2022-08-27T04:19:27.335Z,14.52
2022-08-27T04:21:58.885Z,14.53
2022-08-27T04:24:26.409Z,14.47
2022-08-27T04:26:53.939Z,14.44
2022-08-27T04:29:21.429Z,14.41
2022-08-27T04:31:49.346Z,14.39
2022-08-27T04:34:18.715Z,14.39
2022-08-27T04:36:47.100Z,14.38
2022-08-27T04:39:15.864Z,14.35
2022-08-27T04:41:43.856Z,14.30
2022-08-27T04:44:12.390Z,14.31
2022-08-27T04:46:41.627Z,14.29
2022-08-27T04:49:16.689Z,14.27
2022-08-27T04:51:44.440Z,14.25
2022-08-27T04:54:13.181Z,14.24
2022-08-27T04:56:41.700Z,14.19
2022-08-27T04:59:11.012Z,14.18
2022-08-27T05:01:40.435Z,14.21
2022-08-27T05:04:08.974Z,14.23
2022-08-27T05:06:37.331Z,14.24
2022-08-27T05:09:05.823Z,14.24
2022-08-27T05:11:34.688Z,14.27
2022-08-27T05:14:07.101Z,14.32
2022-08-27T05:16:36.320Z,14.33
2022-08-27T05:19:08.588Z,14.38
2022-08-27T05:21:38.536Z,14.44
2022-08-27T05:24:08.628Z,14.50
2022-08-27T05:26:37.804Z,14.56
2022-08-27T05:29:06.317Z,14.61
2022-08-27T05:31:34.773Z,14.73
2022-08-27T05:34:02.897Z,14.81
2022-08-27T05:36:38.317Z,14.95
2022-08-27T05:39:15.614Z,15.04
2022-08-27T05:41:43.170Z,15.17
2022-08-27T05:44:39.184Z,15.27
2022-08-27T05:46:58.756Z,15.41
2022-08-27T05:49:26.324Z,15.48
2022-08-27T05:51:53.843Z,15.57
2022-08-27T05:54:21.348Z,15.67
2022-08-27T05:56:50.298Z,15.77
2022-08-27T05:59:36.640Z,15.84
2022-08-27T06:02:06.003Z,15.95
2022-08-27T06:04:33.744Z,15.99
2022-08-27T06:07:01.385Z,16.05
2022-08-27T06:09:30.333Z,16.13
2022-08-27T06:12:00.382Z,16.20
2022-08-27T06:14:29.034Z,16.25
2022-08-27T06:16:56.777Z,16.29
2022-08-27T06:19:25.035Z,16.31
2022-08-27T06:22:00.222Z,16.32
2022-08-27T06:24:37.071Z,16.36
2022-08-27T06:27:04.642Z,16.39
2022-08-27T06:29:35.148Z,16.45
2022-08-27T06:32:02.879Z,16.44
2022-08-27T06:34:30.729Z,16.43
2022-08-27T06:36:58.391Z,16.45
2022-08-27T06:39:26.250Z,16.50
2022-08-27T06:41:53.817Z,16.56
2022-08-27T06:44:22.095Z,16.61
2022-08-27T06:46:49.608Z,16.67
2022-08-27T06:49:17.315Z,16.76
2022-08-27T06:51:47.766Z,16.83
2022-08-27T06:54:17.280Z,16.90
2022-08-27T06:56:45.437Z,16.95
2022-08-27T06:59:16.474Z,16.98
2022-08-27T07:01:47.110Z,17.06
2022-08-27T07:04:20.339Z,17.21
2022-08-27T07:06:48.154Z,17.30
2022-08-27T07:09:16.383Z,17.42
2022-08-27T07:11:44.597Z,17.48
2022-08-27T07:14:12.109Z,17.55
2022-08-27T07:16:40.987Z,17.63
2022-08-27T07:19:08.637Z,17.59
2022-08-27T07:21:40.935Z,17.57
2022-08-27T07:24:09.215Z,17.73
2022-08-27T07:26:40.650Z,18.01
2022-08-27T07:29:10.730Z,18.01
2022-08-27T07:31:38.758Z,18.31
2022-08-27T07:34:07.475Z,18.36
2022-08-27T07:36:36.127Z,18.50
2022-08-27T07:39:04.158Z,18.63
2022-08-27T07:41:32.960Z,18.83
2022-08-27T07:44:18.769Z,18.73
2022-08-27T07:46:48.639Z,18.86
2022-08-27T07:49:18.028Z,18.96
2022-08-27T07:51:46.342Z,19.16
2022-08-27T07:54:14.021Z,19.19
2022-08-27T07:56:42.348Z,19.33
2022-08-27T07:59:11.786Z,19.13
2022-08-27T08:01:42.144Z,18.90
2022-08-27T08:04:10.560Z,18.92
2022-08-27T08:06:40.776Z,18.88
2022-08-27T08:09:10.610Z,18.92
2022-08-27T08:11:39.353Z,18.90
2022-08-27T08:14:06.814Z,19.02
2022-08-27T08:16:34.417Z,18.82
2022-08-27T08:19:01.971Z,18.61
2022-08-27T08:21:29.485Z,18.45
2022-08-27T08:23:57.038Z,18.45
2022-08-27T08:26:24.931Z,18.48
2022-08-27T08:28:52.443Z,18.32
2022-08-27T08:31:20.140Z,18.32
2022-08-27T08:33:48.687Z,18.43
2022-08-27T08:36:17.691Z,18.44
2022-08-27T08:38:47.294Z,18.59
2022-08-27T08:41:47.390Z,18.67
2022-08-27T08:44:34.013Z,18.69
2022-08-27T08:47:14.170Z,18.63
2022-08-27T08:50:22.804Z,18.66
2022-08-27T08:53:25.585Z,18.77
2022-08-27T08:55:58.753Z,18.75
2022-08-27T08:58:47.172Z,18.96
2022-08-27T09:01:18.607Z,19.03
2022-08-27T09:03:53.836Z,19.09
2022-08-27T09:06:35.134Z,19.13
2022-08-27T09:09:15.151Z,19.08
2022-08-27T09:11:56.226Z,19.32
2022-08-27T09:14:32.604Z,19.48
2022-08-27T09:17:02.142Z,19.58
2022-08-27T09:19:30.264Z,19.81
2022-08-27T09:22:38.345Z,19.96
2022-08-27T09:25:17.882Z,20.06
2022-08-27T09:27:50.478Z,20.24
2022-08-27T09:30:28.592Z,20.13
2022-08-27T09:33:01.301Z,20.27
2022-08-27T09:35:35.659Z,20.58
2022-08-27T09:38:04.514Z,20.68
2022-08-27T09:40:40.002Z,20.68
2022-08-27T09:43:21.977Z,20.56
2022-08-27T09:46:00.943Z,20.47
2022-08-27T09:48:34.193Z,20.40
2022-08-27T09:51:15.010Z,20.61
2022-08-27T09:53:51.633Z,20.76
2022-08-27T09:56:27.808Z,20.73
2022-08-27T09:59:07.949Z,20.49
2022-08-27T10:01:39.146Z,20.64
2022-08-27T10:04:13.223Z,20.52
2022-08-27T10:06:48.042Z,20.57
2022-08-27T10:09:44.106Z,20.83
2022-08-27T10:12:29.306Z,20.77
2022-08-27T10:15:01.132Z,21.17
2022-08-27T10:17:47.521Z,21.54
2022-08-27T10:20:30.558Z,21.61
2022-08-27T10:23:13.601Z,22.01
2022-08-27T10:26:15.758Z,22.24
2022-08-27T10:28:46.031Z,22.38
2022-08-27T10:31:25.186Z,22.64
2022-08-27T10:33:59.575Z,22.83
2022-08-27T10:36:35.753Z,22.74
2022-08-27T10:39:46.949Z,22.24
2022-08-27T10:42:46.513Z,21.77
2022-08-27T10:45:30.579Z,21.25
2022-08-27T10:48:03.054Z,21.03
2022-08-27T10:51:01.910Z,20.88
2022-08-27T10:53:55.599Z,20.84
2022-08-27T10:56:34.034Z,20.75
2022-08-27T10:59:33.324Z,20.38
2022-08-27T11:02:20.798Z,20.75
2022-08-27T11:04:54.538Z,20.63
2022-08-27T11:07:31.672Z,20.64
2022-08-27T11:10:18.483Z,20.69
2022-08-27T11:12:51.417Z,20.91
2022-08-27T11:15:24.186Z,21.17
2022-08-27T11:17:57.851Z,21.00
2022-08-27T11:20:28.413Z,21.38
2022-08-27T11:23:10.041Z,20.93
2022-08-27T11:25:54.766Z,21.10
2022-08-27T11:28:39.722Z,21.33
2022-08-27T11:31:38.192Z,21.13
2022-08-27T11:34:31.808Z,21.21
2022-08-27T11:37:30.545Z,21.54
2022-08-27T11:40:22.890Z,21.51
2022-08-27T11:42:54.392Z,21.87
2022-08-27T11:45:38.450Z,22.12
2022-08-27T11:48:24.655Z,22.53
2022-08-27T11:51:04.320Z,22.81
2022-08-27T11:53:35.160Z,22.65
2022-08-27T11:56:40.268Z,22.51
2022-08-27T11:59:29.386Z,23.03
2022-08-27T12:02:20.258Z,22.81
2022-08-27T12:04:49.625Z,22.73
2022-08-27T12:07:17.504Z,22.71
2022-08-27T12:09:57.735Z,22.74
2022-08-27T12:12:43.711Z,23.03
2022-08-27T12:15:11.181Z,22.64
2022-08-27T12:17:48.895Z,23.01
2022-08-27T12:21:10.786Z,22.74
2022-08-27T12:23:56.309Z,22.93
2022-08-27T12:26:26.583Z,22.38
2022-08-27T12:29:29.595Z,23.00
2022-08-27T12:32:06.436Z,22.74
2022-08-27T12:34:44.947Z,23.26
2022-08-27T12:37:13.197Z,23.07
2022-08-27T12:39:49.291Z,22.79
2022-08-27T12:42:24.322Z,22.64
2022-08-27T12:44:57.053Z,22.54
2022-08-27T12:47:25.334Z,22.52
2022-08-27T12:49:58.054Z,23.08
2022-08-27T12:52:43.679Z,22.83
2022-08-27T12:55:38.954Z,22.62
2022-08-27T12:58:33.473Z,22.65
2022-08-27T13:01:07.097Z,22.96
2022-08-27T13:03:46.238Z,23.26
2022-08-27T13:06:23.061Z,23.11
2022-08-27T13:08:59.254Z,23.13
2022-08-27T13:11:33.518Z,23.74
2022-08-27T13:14:17.689Z,23.61
2022-08-27T13:17:09.768Z,23.81
2022-08-27T13:19:38.665Z,24.12
2022-08-27T13:22:07.152Z,23.77
2022-08-27T13:24:55.909Z,23.81
2022-08-27T13:27:32.726Z,23.49
2022-08-27T13:30:30.888Z,22.35
2022-08-27T13:33:06.165Z,22.15
2022-08-27T13:35:33.813Z,22.26
2022-08-27T13:38:03.379Z,22.04
2022-08-27T13:40:37.593Z,21.85
2022-08-27T13:43:09.097Z,22.15
2022-08-27T13:45:42.487Z,22.09
2022-08-27T13:48:13.403Z,21.97
2022-08-27T13:50:51.943Z,22.25
2022-08-27T13:53:51.123Z,22.13
2022-08-27T13:56:34.097Z,22.57
2022-08-27T13:59:16.236Z,22.65
2022-08-27T14:01:54.731Z,22.67
2022-08-27T14:04:26.169Z,22.33
2022-08-27T14:06:54.739Z,22.39
2022-08-27T14:09:30.323Z,22.49
2022-08-27T14:12:03.383Z,22.56
2022-08-27T14:14:37.069Z,22.42
2022-08-27T14:17:05.537Z,22.54
2022-08-27T14:19:36.718Z,22.44
2022-08-27T14:22:05.019Z,22.51
2022-08-27T14:24:32.528Z,22.45
2022-08-27T14:27:11.246Z,22.17
2022-08-27T14:29:38.885Z,22.02
2022-08-27T14:32:07.341Z,22.37
2022-08-27T14:34:36.079Z,22.51
2022-08-27T14:37:03.910Z,22.75
2022-08-27T14:39:31.905Z,22.44
2022-08-27T14:41:59.804Z,22.37
2022-08-27T14:44:27.466Z,22.65
2022-08-27T14:46:56.394Z,22.51
2022-08-27T14:49:31.852Z,22.16
2022-08-27T14:51:59.592Z,22.13
2022-08-27T14:54:30.532Z,22.11
2022-08-27T14:57:02.300Z,22.33
2022-08-27T14:59:30.351Z,22.37
2022-08-27T15:02:00.162Z,22.06
2022-08-27T15:04:29.085Z,22.11
2022-08-27T15:06:56.950Z,22.08
2022-08-27T15:09:24.786Z,21.83
2022-08-27T15:11:53.699Z,21.65
2022-08-27T15:14:26.330Z,21.76
2022-08-27T15:16:54.855Z,21.66
2022-08-27T15:19:24.348Z,21.56
2022-08-27T15:21:53.042Z,21.68
2022-08-27T15:24:24.480Z,21.87
2022-08-27T15:26:53.989Z,21.76
2022-08-27T15:29:21.679Z,21.62
2022-08-27T15:31:49.329Z,21.62
2022-08-27T15:34:17.372Z,21.65
2022-08-27T15:36:45.090Z,21.58
2022-08-27T15:39:12.843Z,21.39
2022-08-27T15:42:06.251Z,21.09
2022-08-27T15:44:30.026Z,20.90
2022-08-27T15:46:57.683Z,20.90
2022-08-27T15:49:25.367Z,20.79
2022-08-27T15:51:53.240Z,20.99
2022-08-27T15:54:21.871Z,20.61
2022-08-27T15:56:49.403Z,20.68
2022-08-27T15:59:17.057Z,20.80
2022-08-27T16:01:44.838Z,20.60
2022-08-27T16:04:16.654Z,20.70
2022-08-27T16:06:44.651Z,20.47
2022-08-27T16:09:12.265Z,20.56
2022-08-27T16:11:40.891Z,20.64
2022-08-27T16:14:10.619Z,20.47
2022-08-27T16:16:39.339Z,20.30
2022-08-27T16:19:08.601Z,20.21
2022-08-27T16:21:36.671Z,20.33
2022-08-27T16:24:07.657Z,20.20
2022-08-27T16:26:35.385Z,20.14
2022-08-27T16:29:03.711Z,20.32
2022-08-27T16:31:32.858Z,20.15
2022-08-27T16:34:01.297Z,20.22
2022-08-27T16:36:30.449Z,20.23
2022-08-27T16:38:58.277Z,20.12
2022-08-27T16:41:25.787Z,20.07
2022-08-27T16:43:53.411Z,20.18
2022-08-27T16:46:20.998Z,20.06
2022-08-27T16:49:06.935Z,19.93
2022-08-27T16:51:37.559Z,19.83
2022-08-27T16:54:07.895Z,19.84
2022-08-27T16:56:37.861Z,19.59
2022-08-27T16:59:06.188Z,19.73
2022-08-27T17:01:34.236Z,19.66
2022-08-27T17:04:10.179Z,19.59
2022-08-27T17:06:42.405Z,19.55
2022-08-27T17:09:10.846Z,19.61
2022-08-27T17:11:41.875Z,19.59
2022-08-27T17:14:12.181Z,19.64
2022-08-27T17:16:43.330Z,19.47
2022-08-27T17:19:16.748Z,19.61
2022-08-27T17:21:45.618Z,19.50
2022-08-27T17:24:13.819Z,19.45
2022-08-27T17:26:41.411Z,19.41
2022-08-27T17:29:08.939Z,19.40
2022-08-27T17:31:39.086Z,19.41
2022-08-27T17:34:08.217Z,19.51
2022-08-27T17:36:36.043Z,19.40
2022-08-27T17:39:04.750Z,19.54
2022-08-27T17:41:36.610Z,19.42
2022-08-27T17:44:11.850Z,19.29
2022-08-27T17:46:39.451Z,19.34
2022-08-27T17:49:06.957Z,19.30
2022-08-27T17:51:35.986Z,19.31
2022-08-27T17:54:05.972Z,19.20
2022-08-27T17:56:34.453Z,19.20
2022-08-27T17:59:01.940Z,19.19
2022-08-27T18:01:33.125Z,19.03
2022-08-27T18:04:01.268Z,19.15
2022-08-27T18:06:29.404Z,19.10
2022-08-27T18:08:58.299Z,18.86
2022-08-27T18:11:27.304Z,18.86
2022-08-27T18:14:04.572Z,18.84
2022-08-27T18:16:32.817Z,18.77
2022-08-27T18:19:00.437Z,18.62
2022-08-27T18:21:31.499Z,18.57
2022-08-27T18:23:59.065Z,18.51
2022-08-27T18:26:29.843Z,18.45
2022-08-27T18:28:58.086Z,18.48
2022-08-27T18:31:31.113Z,18.36
2022-08-27T18:34:00.136Z,18.28
2022-08-27T18:36:28.880Z,18.18
2022-08-27T18:38:56.733Z,18.16
2022-08-27T18:41:26.416Z,18.10
2022-08-27T18:43:54.046Z,18.03
2022-08-27T18:46:21.818Z,17.92
2022-08-27T18:48:49.457Z,17.89
2022-08-27T18:51:17.901Z,17.75
2022-08-27T18:53:46.425Z,17.76
2022-08-27T18:56:16.624Z,17.67
2022-08-27T18:58:44.774Z,17.63
2022-08-27T19:01:17.869Z,17.59
2022-08-27T19:03:51.614Z,17.57
2022-08-27T19:06:21.355Z,17.58
2022-08-27T19:08:50.347Z,17.50
2022-08-27T19:11:18.290Z,17.49
2022-08-27T19:13:46.229Z,17.46
2022-08-27T19:16:26.333Z,17.40
2022-08-27T19:18:53.888Z,17.33
2022-08-27T19:21:21.405Z,17.26
2022-08-27T19:23:51.333Z,17.22
2022-08-27T19:26:22.173Z,17.19
2022-08-27T19:28:49.774Z,17.15
2022-08-27T19:31:17.649Z,17.06
2022-08-27T19:33:46.359Z,17.11
2022-08-27T19:36:17.166Z,17.03
2022-08-27T19:38:46.427Z,17.03
2022-08-27T19:41:14.298Z,17.00
2022-08-27T19:43:44.778Z,16.94
2022-08-27T19:46:14.868Z,16.95
2022-08-27T19:48:42.382Z,16.72
2022-08-27T19:51:10.119Z,16.85
2022-08-27T19:53:38.174Z,16.82
2022-08-27T19:56:08.287Z,16.77
2022-08-27T19:58:35.940Z,16.74
2022-08-27T20:01:03.525Z,16.70
2022-08-27T20:03:31.089Z,16.69
2022-08-27T20:05:59.626Z,16.51
2022-08-27T20:08:27.260Z,16.56
2022-08-27T20:10:54.834Z,16.52
2022-08-27T20:13:22.373Z,16.47
2022-08-27T20:15:51.537Z,16.43
2022-08-27T20:18:20.019Z,16.33
2022-08-27T20:20:47.573Z,16.31
2022-08-27T20:23:15.673Z,16.28
2022-08-27T20:25:44.702Z,16.20
2022-08-27T20:28:37.684Z,16.17
2022-08-27T20:31:00.090Z,16.08
2022-08-27T20:33:27.938Z,16.08
2022-08-27T20:35:57.782Z,16.04
2022-08-27T20:38:26.128Z,15.97
2022-08-27T20:40:53.644Z,15.95
2022-08-27T20:43:22.724Z,15.87
2022-08-27T20:45:50.506Z,15.81
2022-08-27T20:48:18.893Z,15.78
2022-08-27T20:50:46.491Z,15.76
2022-08-27T20:53:14.013Z,15.69
2022-08-27T20:55:41.798Z,15.56
2022-08-27T20:58:26.862Z,15.60
2022-08-27T21:00:55.663Z,15.56
2022-08-27T21:03:23.810Z,15.57
2022-08-27T21:05:51.636Z,15.49
2022-08-27T21:08:21.737Z,15.47
2022-08-27T21:10:52.557Z,15.42
2022-08-27T21:13:21.424Z,15.42
2022-08-27T21:15:49.843Z,15.40
2022-08-27T21:18:22.266Z,15.33
2022-08-27T21:20:57.525Z,15.28
2022-08-27T21:23:26.768Z,15.25
2022-08-27T21:25:55.509Z,15.24
2022-08-27T21:28:22.984Z,15.18
2022-08-27T21:30:50.523Z,15.13
2022-08-27T21:33:17.993Z,15.13
2022-08-27T21:35:45.510Z,15.13
2022-08-27T21:38:13.132Z,15.09
2022-08-27T21:40:40.825Z,15.06
2022-08-27T21:43:08.368Z,15.00
2022-08-27T21:45:39.167Z,14.98
2022-08-27T21:48:06.657Z,14.90
2022-08-27T21:50:34.158Z,14.93
2022-08-27T21:53:01.792Z,14.90
2022-08-27T21:55:29.321Z,14.91
2022-08-27T21:57:56.879Z,14.82
2022-08-27T22:00:28.054Z,14.83
2022-08-27T22:02:56.548Z,14.82
2022-08-27T22:05:24.657Z,14.75
2022-08-27T22:07:52.338Z,14.75
2022-08-27T22:10:20.141Z,14.71
2022-08-27T22:12:47.626Z,14.61
2022-08-27T22:15:15.213Z,14.62
2022-08-27T22:17:42.824Z,14.54
2022-08-27T22:20:11.006Z,14.55
2022-08-27T22:22:40.093Z,14.53
2022-08-27T22:25:08.359Z,14.51
2022-08-27T22:27:36.173Z,14.47
2022-08-27T22:30:05.745Z,14.44
2022-08-27T22:32:36.027Z,14.43
2022-08-27T22:35:03.558Z,14.40
2022-08-27T22:37:31.090Z,14.37
2022-08-27T22:39:58.733Z,14.32
2022-08-27T22:42:27.131Z,14.29
2022-08-27T22:44:55.097Z,14.28
2022-08-27T22:47:22.658Z,14.26
2022-08-27T22:49:52.930Z,14.23
2022-08-27T22:52:20.724Z,14.23
2022-08-27T22:54:54.774Z,14.19
2022-08-27T22:57:22.690Z,14.20
2022-08-27T22:59:50.352Z,14.15
2022-08-27T23:02:18.669Z,14.14
2022-08-27T23:04:54.928Z,14.12
2022-08-27T23:07:23.548Z,14.09
2022-08-27T23:09:51.127Z,14.06
2022-08-27T23:12:19.866Z,14.02
2022-08-27T23:14:47.499Z,13.99
2022-08-27T23:17:16.055Z,13.93
2022-08-27T23:19:44.302Z,13.91
2022-08-27T23:22:12.413Z,13.92
2022-08-27T23:25:00.384Z,13.92
2022-08-27T23:27:30.279Z,13.86
2022-08-27T23:30:00.406Z,13.90
2022-08-27T23:32:28.817Z,13.86
2022-08-27T23:34:56.950Z,13.84
2022-08-27T23:37:25.171Z,13.79
2022-08-27T23:39:52.879Z,13.80
2022-08-27T23:42:20.685Z,13.76
2022-08-27T23:44:49.450Z,13.74
2022-08-27T23:47:17.642Z,13.73
2022-08-27T23:49:45.216Z,13.70
2022-08-27T23:52:14.047Z,13.70
2022-08-27T23:54:41.973Z,13.69
2022-08-27T23:57:09.461Z,13.64
2022-08-27T23:59:36.982Z,13.64
